Soquel, California
Current Conditions -  °F | °C
As of 2:53 AM on Thursday 27 Nov 2014 (Local Time) from KWVI Reporting Station
Clear Clear  
Wind Chill: 10°   Ceiling: Unl
Heat Index: 10°   Visibility: 10mi
Dew Point:   Wind: 5mph
Humidity: 71%   Direction: 330°NNW
Pressure: 30.17"   Gusts: NA
Location:  36.99°N, 121.95°W
Report Text: KWVI 271053Z AUTO 33004KT 10SM CLR 10/05 A3017 RMK AO2 SLP216 T01000050
Loading
Personal Weather Stations






























Interactive Weather Map New forecast layout! Learn more

10-Day Weather Forecast

Advertisements
Track Severe Weather on mobile